createdAt,value
2022-08-09T00:01:54.081Z,98919.19
2022-08-09T00:05:03.051Z,98912.00
2022-08-09T00:08:48.480Z,98923.12
2022-08-09T00:12:02.623Z,98930.31
2022-08-09T00:15:08.537Z,98928.56
2022-08-09T00:18:19.361Z,98936.53
2022-08-09T00:21:56.534Z,98921.09
2022-08-09T00:24:59.847Z,98941.41
2022-08-09T00:28:06.811Z,98930.19
2022-08-09T00:35:17.617Z,98937.06
2022-08-09T00:38:21.572Z,98940.41
2022-08-09T00:44:16.564Z,98953.19
2022-08-09T00:44:49.581Z,98957.00
2022-08-09T00:47:52.684Z,98954.38
2022-08-09T00:51:10.213Z,98949.34
2022-08-09T00:54:16.466Z,98945.88
2022-08-09T00:57:33.839Z,98917.38
2022-08-09T01:00:40.000Z,98935.41
2022-08-09T01:03:58.708Z,98928.66
2022-08-09T01:07:37.884Z,98925.63
2022-08-09T01:11:14.960Z,98927.56
2022-08-09T01:14:28.958Z,98912.78
2022-08-09T01:17:42.207Z,98906.84
2022-08-09T01:21:03.851Z,98913.44
2022-08-09T01:24:36.467Z,98909.28
2022-08-09T01:27:43.225Z,98916.81
2022-08-09T01:30:51.269Z,98914.72
2022-08-09T01:33:59.705Z,98920.19
2022-08-09T01:37:06.753Z,98912.00
2022-08-09T01:40:13.345Z,98911.66
2022-08-09T01:43:27.054Z,98904.66
2022-08-09T01:46:47.208Z,98911.84
2022-08-09T01:49:54.654Z,98901.63
2022-08-09T01:52:59.739Z,98911.00
2022-08-09T01:56:04.604Z,98910.31
2022-08-09T01:59:11.145Z,98890.47
2022-08-09T02:02:22.195Z,98899.41
2022-08-09T02:05:35.490Z,98895.94
2022-08-09T02:08:58.807Z,98904.00
2022-08-09T02:12:06.198Z,98896.16
2022-08-09T02:15:15.497Z,98895.25
2022-08-09T02:18:26.860Z,98896.34
2022-08-09T02:21:34.768Z,98895.50
2022-08-09T02:24:43.184Z,98894.94
2022-08-09T02:28:00.601Z,98892.88
2022-08-09T02:31:26.766Z,98886.56
2022-08-09T02:34:41.645Z,98887.53
2022-08-09T02:37:59.067Z,98888.47
2022-08-09T02:41:12.160Z,98878.25
2022-08-09T02:44:30.173Z,98882.84
2022-08-09T02:47:57.339Z,98892.53
2022-08-09T02:51:02.601Z,98879.78
2022-08-09T02:54:06.539Z,98895.59
2022-08-09T02:57:14.182Z,98900.28
2022-08-09T03:00:27.799Z,98895.69
2022-08-09T03:03:59.597Z,98892.22
2022-08-09T03:06:59.757Z,98892.50
2022-08-09T03:10:19.616Z,98897.19
2022-08-09T03:13:23.747Z,98894.91
2022-08-09T03:16:27.639Z,98892.16
2022-08-09T03:19:52.393Z,98887.44
2022-08-09T03:23:05.557Z,98898.34
2022-08-09T03:26:21.053Z,98897.66
2022-08-09T03:29:35.587Z,98888.53
2022-08-09T03:32:48.698Z,98892.19
2022-08-09T03:36:14.021Z,98885.41
2022-08-09T03:39:21.859Z,98892.81
2022-08-09T03:42:29.139Z,98876.03
2022-08-09T03:46:05.338Z,98897.50
2022-08-09T03:49:04.285Z,98871.88
2022-08-09T03:52:12.658Z,98894.09
2022-08-09T03:55:16.814Z,98884.31
2022-08-09T03:58:21.448Z,98885.69
2022-08-09T04:01:25.716Z,98885.12
2022-08-09T04:04:38.662Z,98876.94
2022-08-09T04:07:52.387Z,98880.13
2022-08-09T04:11:01.475Z,98883.44
2022-08-09T04:14:53.592Z,98887.69
2022-08-09T04:17:31.267Z,98877.75
2022-08-09T04:20:35.774Z,98886.69
2022-08-09T04:23:39.866Z,98884.88
2022-08-09T04:26:42.949Z,98888.13
2022-08-09T04:29:49.545Z,98897.09
2022-08-09T04:32:54.163Z,98898.75
2022-08-09T04:35:57.714Z,98904.28
2022-08-09T04:39:03.630Z,98902.28
2022-08-09T04:42:09.219Z,98910.97
2022-08-09T04:45:13.258Z,98911.37
2022-08-09T04:48:19.135Z,98912.06
2022-08-09T04:51:23.144Z,98908.09
2022-08-09T04:54:29.359Z,98916.50
2022-08-09T04:57:58.988Z,98920.81
2022-08-09T05:00:57.579Z,98919.28
2022-08-09T05:04:02.993Z,98926.50
2022-08-09T05:07:06.855Z,98916.94
2022-08-09T05:10:23.918Z,98922.44
2022-08-09T05:13:27.683Z,98939.84
2022-08-09T05:16:33.896Z,98936.50
2022-08-09T05:19:59.367Z,98935.28
2022-08-09T05:23:54.541Z,98941.37
2022-08-09T05:26:37.581Z,98938.88
2022-08-09T05:29:49.487Z,98936.63
2022-08-09T05:32:54.122Z,98943.94
2022-08-09T05:35:57.460Z,98943.72
2022-08-09T05:39:02.507Z,98951.84
2022-08-09T05:42:08.194Z,98958.53
2022-08-09T05:45:14.361Z,98944.69
2022-08-09T05:48:18.402Z,98957.13
2022-08-09T05:51:42.367Z,98956.00
2022-08-09T05:54:49.187Z,98958.06
2022-08-09T05:57:57.021Z,98967.69
2022-08-09T06:01:01.652Z,98963.63
2022-08-09T06:04:05.571Z,98942.22
2022-08-09T06:07:11.283Z,98955.66
2022-08-09T06:10:38.061Z,98961.19
2022-08-09T06:13:41.929Z,98954.72
2022-08-09T06:16:52.190Z,98952.50
2022-08-09T06:19:56.065Z,98955.56
2022-08-09T06:23:00.198Z,98956.06
2022-08-09T06:26:03.323Z,98941.91
2022-08-09T06:29:08.370Z,98954.69
2022-08-09T06:33:00.559Z,98947.25
2022-08-09T06:35:57.846Z,98962.94
2022-08-09T06:39:02.681Z,98952.62
2022-08-09T06:42:14.395Z,98947.56
2022-08-09T06:46:04.677Z,98955.78
2022-08-09T06:48:43.206Z,98955.53
2022-08-09T06:51:46.974Z,98957.16
2022-08-09T06:54:51.622Z,98955.53
2022-08-09T06:58:03.451Z,98963.41
2022-08-09T07:01:08.541Z,98885.63
2022-08-09T07:04:11.951Z,98963.66
2022-08-09T07:07:28.559Z,98966.31
2022-08-09T07:10:48.247Z,98967.81
2022-08-09T07:14:04.244Z,98971.97
2022-08-09T07:17:09.872Z,98968.03
2022-08-09T07:20:14.884Z,98974.88
2022-08-09T07:23:19.980Z,98980.03
2022-08-09T07:26:25.395Z,98971.59
2022-08-09T07:29:37.690Z,98979.87
2022-08-09T07:32:42.592Z,98964.25
2022-08-09T07:35:54.174Z,98976.44
2022-08-09T07:39:02.363Z,98969.91
2022-08-09T07:42:06.567Z,98969.84
2022-08-09T07:45:22.756Z,98963.50
2022-08-09T07:48:30.553Z,98968.88
2022-08-09T07:52:04.564Z,98935.25
2022-08-09T07:54:59.853Z,98969.72
2022-08-09T07:58:05.048Z,98970.28
2022-08-09T08:01:16.470Z,98959.25
2022-08-09T08:04:32.273Z,98970.31
2022-08-09T08:09:02.634Z,98968.22
2022-08-09T08:11:03.500Z,98960.56
2022-08-09T08:14:25.786Z,98966.56
2022-08-09T08:17:35.120Z,98970.38
2022-08-09T08:20:53.755Z,98951.78
2022-08-09T08:24:01.223Z,98971.19
2022-08-09T08:27:16.563Z,98968.28
2022-08-09T08:30:23.008Z,98961.31
2022-08-09T08:33:26.630Z,98971.84
2022-08-09T08:36:50.672Z,98968.41
2022-08-09T08:39:55.860Z,98971.72
2022-08-09T08:43:00.377Z,98973.19
2022-08-09T08:46:32.324Z,98972.78
2022-08-09T08:49:38.554Z,98976.47
2022-08-09T08:53:00.019Z,98972.87
2022-08-09T08:56:05.049Z,98972.47
2022-08-09T08:59:18.962Z,98972.09
2022-08-09T09:02:31.402Z,98974.63
2022-08-09T09:05:59.742Z,98973.06
2022-08-09T09:09:00.720Z,98977.28
2022-08-09T09:12:16.535Z,98977.13
2022-08-09T09:15:28.208Z,98974.13
2022-08-09T09:18:33.501Z,98968.97
2022-08-09T09:21:43.169Z,98981.09
2022-08-09T09:24:54.559Z,98977.06
2022-08-09T09:28:08.096Z,98974.06
2022-08-09T09:32:03.629Z,98975.97
2022-08-09T09:35:03.774Z,98961.47
2022-08-09T09:38:18.414Z,98976.00
2022-08-09T09:41:48.639Z,98973.38
2022-08-09T09:45:01.056Z,98963.69
2022-08-09T09:48:08.474Z,98967.41
2022-08-09T09:51:26.204Z,98971.59
2022-08-09T09:54:48.757Z,98975.59
2022-08-09T09:58:16.444Z,98979.22
2022-08-09T10:01:30.210Z,98983.56
2022-08-09T10:04:44.290Z,98977.94
2022-08-09T10:08:10.956Z,98969.59
2022-08-09T10:11:59.282Z,98964.84
2022-08-09T10:14:47.705Z,98985.69
2022-08-09T10:17:56.718Z,98978.28
2022-08-09T10:21:11.141Z,98973.69
2022-08-09T10:24:25.734Z,98978.75
2022-08-09T10:27:45.170Z,98961.88
2022-08-09T10:34:33.535Z,98968.69
2022-08-09T10:37:40.146Z,98963.97
2022-08-09T10:40:50.023Z,98962.44
2022-08-09T10:44:01.297Z,98944.09
2022-08-09T10:48:12.099Z,98952.47
2022-08-09T10:51:10.014Z,98956.00
2022-08-09T10:54:14.423Z,98952.81
2022-08-09T10:57:17.906Z,98952.47
2022-08-09T11:00:31.599Z,98952.81
2022-08-09T11:03:50.760Z,98947.72
2022-08-09T11:07:00.001Z,98949.87
2022-08-09T11:10:05.815Z,98947.50
2022-08-09T11:13:49.412Z,98942.63
2022-08-09T11:16:44.610Z,98945.00
2022-08-09T11:20:07.872Z,98944.50
2022-08-09T11:23:16.686Z,98940.41
2022-08-09T11:26:40.826Z,98935.94
2022-08-09T11:30:04.468Z,98930.94
2022-08-09T11:33:18.127Z,98928.44
2022-08-09T11:36:35.451Z,98927.19
2022-08-09T11:40:02.900Z,98874.81
2022-08-09T11:43:08.003Z,98929.00
2022-08-09T11:46:12.302Z,98925.28
2022-08-09T11:49:16.973Z,98926.84
2022-08-09T11:53:03.081Z,98920.69
2022-08-09T11:55:53.403Z,98929.53
2022-08-09T11:58:59.252Z,98920.06
2022-08-09T12:02:17.808Z,98923.00
2022-08-09T12:05:42.301Z,98916.06
2022-08-09T12:08:53.126Z,98918.06
2022-08-09T12:12:05.420Z,98915.59
2022-08-09T12:15:49.583Z,98917.56
2022-08-09T12:18:53.865Z,98910.84
2022-08-09T12:22:02.868Z,98918.53
2022-08-09T12:25:14.948Z,98913.50
2022-08-09T12:29:13.570Z,98917.31
2022-08-09T12:32:02.162Z,98901.34
2022-08-09T12:35:12.574Z,98897.22
2022-08-09T12:38:29.577Z,98896.00
2022-08-09T12:41:40.967Z,98888.53
2022-08-09T12:44:52.464Z,98888.37
2022-08-09T12:47:58.367Z,98885.44
2022-08-09T12:51:04.290Z,98879.91
2022-08-09T12:54:07.627Z,98885.22
2022-08-09T12:57:11.147Z,98883.88
2022-08-09T13:00:25.129Z,98877.44
2022-08-09T13:03:56.773Z,98879.38
2022-08-09T13:07:10.209Z,98879.87
2022-08-09T13:10:14.321Z,98876.06
2022-08-09T13:14:11.838Z,98881.47
2022-08-09T13:16:59.460Z,98875.41
2022-08-09T13:20:14.264Z,98873.13
2022-08-09T13:24:16.272Z,98875.22
2022-08-09T13:27:08.577Z,98865.81
2022-08-09T13:30:51.591Z,98877.94
2022-08-09T13:33:52.944Z,98876.03
2022-08-09T13:37:02.488Z,98876.56
2022-08-09T13:41:46.859Z,98878.97
2022-08-09T13:43:38.796Z,98869.62
2022-08-09T13:47:27.674Z,98873.75
2022-08-09T13:50:29.862Z,98876.69
2022-08-09T13:53:37.615Z,98873.69
2022-08-09T13:56:47.718Z,98872.16
2022-08-09T13:59:51.204Z,98867.84
2022-08-09T14:03:04.463Z,98867.66
2022-08-09T14:06:26.787Z,98868.16
2022-08-09T14:09:34.730Z,98869.72
2022-08-09T14:12:39.846Z,98885.00
2022-08-09T14:16:10.628Z,98863.03
2022-08-09T14:19:08.350Z,98870.00
2022-08-09T14:22:11.444Z,98858.75
2022-08-09T14:25:15.414Z,98869.88
2022-08-09T14:28:20.904Z,98870.53
2022-08-09T14:31:35.911Z,98864.84
2022-08-09T14:34:55.933Z,98870.53
2022-08-09T14:38:04.284Z,98860.31
2022-08-09T14:41:26.635Z,98859.41
2022-08-09T14:44:59.116Z,98863.38
2022-08-09T14:47:59.744Z,98862.34
2022-08-09T14:51:04.071Z,98852.00
2022-08-09T14:54:09.700Z,98857.03
2022-08-09T14:57:13.289Z,98860.16
2022-08-09T15:00:20.046Z,98859.09
2022-08-09T15:03:24.344Z,98853.75
2022-08-09T15:06:27.714Z,98850.78
2022-08-09T15:10:10.414Z,98845.22
2022-08-09T15:12:57.770Z,98857.19
2022-08-09T15:16:01.120Z,98847.31
2022-08-09T15:19:15.867Z,98835.00
2022-08-09T15:22:21.998Z,98841.44
2022-08-09T15:25:41.056Z,98843.03
2022-08-09T15:28:45.744Z,98842.78
2022-08-09T15:31:58.029Z,98855.38
2022-08-09T15:35:01.437Z,98854.69
2022-08-09T15:38:11.857Z,98848.66
2022-08-09T15:41:22.338Z,98851.22
2022-08-09T15:44:25.082Z,98846.19
2022-08-09T15:47:47.161Z,98852.25
2022-08-09T15:50:52.859Z,98851.72
2022-08-09T15:54:04.806Z,98820.75
2022-08-09T15:57:34.986Z,98849.00
2022-08-09T16:00:48.134Z,98849.34
2022-08-09T16:03:52.069Z,98852.28
2022-08-09T16:06:55.282Z,98843.25
2022-08-09T16:10:04.859Z,98850.53
2022-08-09T16:13:20.956Z,98853.62
2022-08-09T16:16:32.417Z,98844.22
2022-08-09T16:19:49.477Z,98855.13
2022-08-09T16:23:02.412Z,98836.75
2022-08-09T16:26:05.319Z,98853.69
2022-08-09T16:29:37.385Z,98842.63
2022-08-09T16:33:04.886Z,98849.53
2022-08-09T16:36:15.964Z,98854.69
2022-08-09T16:39:25.689Z,98855.66
2022-08-09T16:42:29.074Z,98846.69
2022-08-09T16:45:33.441Z,98852.88
2022-08-09T16:48:56.898Z,98856.97
2022-08-09T16:51:59.732Z,98856.28
2022-08-09T16:55:02.969Z,98865.94
2022-08-09T16:58:11.501Z,98858.06
2022-08-09T17:01:16.433Z,98863.13
2022-08-09T17:04:26.093Z,98872.22
2022-08-09T17:08:42.777Z,98868.53
2022-08-09T17:10:55.357Z,98876.56
2022-08-09T17:14:01.125Z,98869.75
2022-08-09T17:17:26.008Z,98865.34
2022-08-09T17:20:37.686Z,98864.28
2022-08-09T17:24:21.231Z,98866.47
2022-08-09T17:27:14.992Z,98866.37
2022-08-09T17:30:20.478Z,98854.72
2022-08-09T17:33:23.785Z,98863.66
2022-08-09T17:36:27.045Z,98868.97
2022-08-09T17:39:52.478Z,98852.44
2022-08-09T17:42:59.280Z,98870.41
2022-08-09T17:46:09.133Z,98877.72
2022-08-09T17:49:12.926Z,98874.28
2022-08-09T17:52:22.689Z,98878.53
2022-08-09T17:55:47.217Z,98891.19
2022-08-09T17:58:50.657Z,98900.38
2022-08-09T18:02:10.851Z,98903.75
2022-08-09T18:05:15.887Z,98927.59
2022-08-09T18:08:18.575Z,98929.97
2022-08-09T18:11:25.896Z,98932.59
2022-08-09T18:14:30.987Z,98926.84
2022-08-09T18:18:02.551Z,98940.44
2022-08-09T18:21:19.057Z,98911.78
2022-08-09T18:24:27.452Z,98948.75
2022-08-09T18:28:03.097Z,98958.59
2022-08-09T18:30:55.853Z,98956.09
2022-08-09T18:34:00.278Z,98970.44
2022-08-09T18:37:04.926Z,98974.63
2022-08-09T18:40:15.384Z,98976.78
2022-08-09T18:43:23.513Z,98972.16
2022-08-09T18:46:48.660Z,98992.84
2022-08-09T18:49:52.052Z,99005.97
2022-08-09T18:52:55.949Z,98995.63
2022-08-09T18:56:05.196Z,98996.06
2022-08-09T18:59:09.475Z,98996.53
2022-08-09T19:02:16.409Z,98949.87
2022-08-09T19:05:49.162Z,99004.53
2022-08-09T19:08:55.199Z,99017.25
2022-08-09T19:12:09.546Z,99028.38
2022-08-09T19:15:14.369Z,99029.88
2022-08-09T19:18:33.429Z,99030.63
2022-08-09T19:21:52.384Z,99035.06
2022-08-09T19:25:42.797Z,99030.50
2022-08-09T19:28:35.180Z,99018.91
2022-08-09T19:31:45.317Z,99029.66
2022-08-09T19:34:49.753Z,99040.69
2022-08-09T19:37:58.113Z,99039.59
2022-08-09T19:41:03.327Z,99041.47
2022-08-09T19:44:09.388Z,99047.75
2022-08-09T19:47:13.859Z,99053.84
2022-08-09T19:50:49.070Z,99028.09
2022-08-09T19:53:45.410Z,99044.12
2022-08-09T19:56:51.186Z,99044.78
2022-08-09T20:00:05.694Z,99053.12
2022-08-09T20:04:08.356Z,99044.28
2022-08-09T20:06:37.058Z,99039.09
2022-08-09T20:09:45.065Z,99041.22
2022-08-09T20:12:51.835Z,99052.44
2022-08-09T20:16:38.058Z,99057.31
2022-08-09T20:19:47.568Z,99048.09
2022-08-09T20:22:46.524Z,99050.19
2022-08-09T20:25:52.163Z,99055.59
2022-08-09T20:28:57.137Z,99059.81
2022-08-09T20:32:30.085Z,99068.53
2022-08-09T20:35:26.337Z,99062.56
2022-08-09T20:39:00.283Z,99073.78
2022-08-09T20:41:57.508Z,99077.13
2022-08-09T20:45:56.835Z,99065.31
2022-08-09T20:48:25.155Z,99066.03
2022-08-09T20:51:41.151Z,99054.09
2022-08-09T20:54:51.869Z,99066.66
2022-08-09T20:58:05.344Z,99068.78
2022-08-09T21:01:32.490Z,99062.31
2022-08-09T21:05:53.879Z,99080.91
2022-08-09T21:08:01.555Z,99081.75
2022-08-09T21:11:07.174Z,99078.50
2022-08-09T21:14:31.178Z,99081.34
2022-08-09T21:18:22.065Z,99078.91
2022-08-09T21:21:02.548Z,99076.50
2022-08-09T21:24:28.740Z,99081.25
2022-08-09T21:27:51.017Z,99083.88
2022-08-09T21:31:00.896Z,99086.75
2022-08-09T21:34:29.367Z,99098.47
2022-08-09T21:37:35.319Z,99094.22
2022-08-09T21:40:45.244Z,99098.97
2022-08-09T21:43:56.416Z,99095.59
2022-08-09T21:47:01.871Z,99098.97
2022-08-09T21:50:07.060Z,99094.56
2022-08-09T21:53:39.936Z,99080.25
2022-08-09T21:56:54.341Z,99079.13
2022-08-09T21:59:58.054Z,99091.19
2022-08-09T22:03:06.760Z,99082.72
2022-08-09T22:06:10.722Z,99090.84
2022-08-09T22:09:14.020Z,99083.72
2022-08-09T22:12:30.346Z,99081.97
2022-08-09T22:15:37.810Z,99084.47
2022-08-09T22:18:54.583Z,99086.66
2022-08-09T22:21:59.359Z,99091.81
2022-08-09T22:26:07.518Z,99092.38
2022-08-09T22:28:32.566Z,99071.16
2022-08-09T22:31:50.137Z,99086.34
2022-08-09T22:35:06.042Z,99086.44
2022-08-09T22:38:10.729Z,99078.19
2022-08-09T22:41:19.358Z,99088.13
2022-08-09T22:44:23.627Z,99079.59
2022-08-09T22:48:14.133Z,99075.88
2022-08-09T22:50:56.676Z,99071.59
2022-08-09T22:54:02.621Z,99057.13
2022-08-09T22:57:08.181Z,99071.31
2022-08-09T23:00:17.983Z,99080.66
2022-08-09T23:04:04.732Z,99082.25
2022-08-09T23:07:04.380Z,99087.72
2022-08-09T23:10:15.043Z,99082.50
2022-08-09T23:13:18.300Z,99085.34
2022-08-09T23:16:23.490Z,99071.37
2022-08-09T23:19:26.406Z,99079.69
2022-08-09T23:22:30.284Z,99063.72
2022-08-09T23:25:33.593Z,99068.41
2022-08-09T23:28:37.147Z,99061.09
2022-08-09T23:31:41.174Z,99067.78
2022-08-09T23:34:45.549Z,99061.75
2022-08-09T23:37:49.021Z,99057.03
2022-08-09T23:40:54.279Z,99060.75
2022-08-09T23:44:01.278Z,99057.81
2022-08-09T23:47:04.507Z,99060.03
2022-08-09T23:50:08.660Z,99062.63
2022-08-09T23:53:12.597Z,99061.00
2022-08-09T23:56:15.367Z,99058.81
2022-08-09T23:59:21.195Z,99054.75
